Time;durP1;ratioP1;P1;durP2;ratioP2;P2;SDS_P1;SDS_P2;PMS_P1;PMS_P2;Temp;Humidity;BMP_temperature;BMP_pressure;BME280_temperature;BME280_humidity;BME280_pressure;Samples;Min_cycle;Max_cycle;Signal;HPM_P1;HPM_P2
2022/09/24 00:00:41;;;;;;;6.05;3.40;;;;;;;12.32;62.07;100946.19;2060474;28;20033;-68
2022/09/24 00:01:46;;;;;;;8.20;3.65;;;;;;;12.32;62.12;100940.00;2079682;28;20045;-68
2022/09/24 00:02:51;;;;;;;6.68;3.13;;;;;;;12.31;62.18;100941.09;2070443;28;20041;-68
2022/09/24 00:04:00;;;;;;;7.85;3.88;;;;;;;12.29;61.94;100947.59;2071707;28;20029;-69
2022/09/24 00:05:02;;;;;;;6.97;3.70;;;;;;;12.31;62.19;100949.19;2079853;28;20038;-69
2022/09/24 00:06:06;;;;;;;10.63;3.97;;;;;;;12.31;61.97;100943.81;2085157;28;20060;-68
2022/09/24 00:07:08;;;;;;;6.82;3.70;;;;;;;12.32;61.91;100940.81;2077774;28;20033;-68
2022/09/24 00:08:13;;;;;;;9.13;3.47;;;;;;;12.30;62.32;100945.69;2063806;28;20537;-70
2022/09/24 00:09:20;;;;;;;7.07;3.60;;;;;;;12.28;62.00;100954.06;2071827;28;20041;-70
2022/09/24 00:10:25;;;;;;;10.02;4.25;;;;;;;12.28;62.11;100945.16;2071832;28;20041;-68
2022/09/24 00:11:31;;;;;;;8.27;3.78;;;;;;;12.26;61.98;100942.75;2071827;28;20109;-69
2022/09/24 00:12:34;;;;;;;4.82;2.90;;;;;;;12.26;62.09;100940.06;2079352;28;20053;-68
2022/09/24 00:13:39;;;;;;;6.85;3.55;;;;;;;12.29;62.11;100941.38;2079742;28;20054;-68
2022/09/24 00:14:44;;;;;;;8.90;3.25;;;;;;;12.27;62.17;100949.75;2079145;28;20060;-68
2022/09/24 00:15:51;;;;;;;7.15;4.15;;;;;;;12.24;62.13;100947.63;2079454;28;20394;-68
2022/09/24 00:16:56;;;;;;;6.10;3.45;;;;;;;12.23;62.08;100943.31;2071496;28;20469;-71
2022/09/24 00:17:58;;;;;;;9.80;3.72;;;;;;;12.22;62.25;100944.38;2071390;28;20041;-69
2022/09/24 00:19:01;;;;;;;6.32;3.20;;;;;;;12.22;62.34;100947.06;2063505;28;20042;-69
2022/09/24 00:20:08;;;;;;;9.52;3.75;;;;;;;12.23;62.67;100946.00;2064012;28;20490;-68
2022/09/24 00:21:14;;;;;;;;;;;;;;;12.23;62.56;100948.72;2072032;28;20166;-68
2022/09/24 00:22:16;;;;;;;6.28;3.63;;;;;;;12.22;62.58;100939.00;2071689;28;20419;-68
2022/09/24 00:23:18;;;;;;;7.43;3.50;;;;;;;12.21;62.73;100942.78;2071576;28;20037;-68
2022/09/24 00:27:06;;;;;;;5.50;2.90;;;;;;;12.19;62.95;100942.25;2068857;28;20061;-69
2022/09/24 00:28:08;;;;;;;6.85;3.30;;;;;;;12.20;63.04;100943.03;2063641;28;20082;-69
2022/09/24 00:29:16;;;;;;;10.25;3.55;;;;;;;12.21;62.89;100936.59;2071416;28;20513;-69
2022/09/24 00:30:19;;;;;;;6.90;3.40;;;;;;;12.20;63.14;100940.34;2063588;28;20046;-69
2022/09/24 00:31:23;;;;;;;8.55;3.30;;;;;;;12.21;62.86;100942.78;2055512;28;20037;-69
2022/09/24 00:32:25;;;;;;;5.03;3.00;;;;;;;12.21;63.27;100944.69;2062737;28;20046;-69
2022/09/24 00:33:33;;;;;;;7.68;3.22;;;;;;;12.22;63.22;100947.06;2066190;28;20382;-69
2022/09/24 00:34:40;;;;;;;6.43;3.65;;;;;;;12.21;63.10;100940.09;2070815;28;20042;-68
2022/09/24 00:35:44;;;;;;;8.00;3.60;;;;;;;12.23;63.10;100935.22;2058412;28;20038;-69
2022/09/24 00:36:54;;;;;;;9.23;3.33;;;;;;;12.25;63.19;100940.31;2062730;28;20065;-69
2022/09/24 00:37:57;;;;;;;6.55;3.47;;;;;;;12.22;63.06;100933.59;2062546;28;20042;-68
2022/09/24 00:39:03;;;;;;;7.10;3.45;;;;;;;12.24;63.34;100933.34;2062852;28;20054;-69
2022/09/24 00:40:09;;;;;;;6.10;3.50;;;;;;;12.23;63.54;100932.53;2055260;28;20569;-69
2022/09/24 00:41:14;;;;;;;7.97;3.00;;;;;;;12.22;63.55;100933.59;2056702;28;20081;-69
2022/09/24 00:42:21;;;;;;;7.15;3.50;;;;;;;12.20;63.40;100925.00;2063240;28;20414;-69
2022/09/24 00:43:48;;;;;;;7.55;3.28;;;;;;;12.21;63.73;100926.59;2070822;28;20034;-69
2022/09/24 00:44:54;;;;;;;6.87;3.40;;;;;;;12.19;63.93;100926.06;2067718;28;20710;-69
2022/09/24 00:46:18;;;;;;;8.60;3.50;;;;;;;12.18;63.91;100921.78;2062860;28;20293;-68
2022/09/24 00:47:36;;;;;;;7.07;3.85;;;;;;;12.16;63.96;100923.94;2050112;28;20055;-69
2022/09/24 00:48:41;;;;;;;5.43;3.45;;;;;;;12.17;64.32;100916.66;2060091;28;20049;-69
2022/09/24 00:49:50;;;;;;;8.48;3.65;;;;;;;12.19;64.18;100912.59;2063236;28;20089;-69
2022/09/24 00:50:55;;;;;;;8.65;3.35;;;;;;;12.19;64.33;100920.69;2061250;28;20038;-68
2022/09/24 00:52:02;;;;;;;7.88;3.88;;;;;;;12.20;64.20;100918.78;2070966;28;20034;-68
2022/09/24 00:53:09;;;;;;;6.18;3.08;;;;;;;12.21;64.35;100923.09;2070927;28;20046;-69
2022/09/24 00:54:22;;;;;;;6.25;3.35;;;;;;;12.19;64.36;100920.69;2070877;28;20097;-68
2022/09/24 00:55:25;;;;;;;6.63;3.45;;;;;;;12.19;64.35;100920.69;2071274;28;20049;-69
2022/09/24 00:56:32;;;;;;;6.00;3.45;;;;;;;12.17;64.12;100916.66;2062724;28;20026;-68
2022/09/24 00:57:41;;;;;;;8.23;3.70;;;;;;;12.16;64.33;100915.03;2064559;28;20063;-69
2022/09/24 00:58:46;;;;;;;8.05;3.33;;;;;;;12.14;64.64;100917.25;2070473;28;20042;-70
2022/09/24 00:59:49;;;;;;;6.22;3.53;;;;;;;12.12;64.86;100914.81;2063300;28;20045;-68
2022/09/24 01:00:57;;;;;;;6.68;3.95;;;;;;;12.11;64.72;100918.59;2054517;28;20054;-69
2022/09/24 01:01:59;;;;;;;5.65;3.35;;;;;;;12.11;64.82;100912.41;2056393;28;20050;-68
2022/09/24 01:03:09;;;;;;;6.35;3.55;;;;;;;12.07;65.10;100912.13;2062419;28;20581;-68
2022/09/24 01:04:12;;;;;;;6.85;3.95;;;;;;;12.08;65.15;100912.97;2063940;28;20053;-68
2022/09/24 01:05:16;;;;;;;7.57;3.78;;;;;;;12.08;65.35;100902.97;2063478;28;20055;-69
2022/09/24 01:06:24;;;;;;;7.55;3.80;;;;;;;12.08;65.24;100910.28;2078369;28;20049;-69
2022/09/24 01:07:27;;;;;;;8.15;4.10;;;;;;;12.06;65.24;100918.63;2079405;28;20056;-70
2022/09/24 01:08:32;;;;;;;6.68;4.10;;;;;;;12.06;65.54;100910.53;2079971;28;20065;-69
2022/09/24 01:09:36;;;;;;;7.00;3.78;;;;;;;12.04;65.57;100907.31;2071382;28;20135;-70
2022/09/24 01:10:50;;;;;;;8.40;3.72;;;;;;;12.05;65.74;100908.94;2072419;28;20044;-69
2022/09/24 01:12:07;;;;;;;12.80;4.20;;;;;;;12.04;65.44;100902.75;2063929;28;20039;-69
2022/09/24 01:13:25;;;;;;;10.25;3.83;;;;;;;12.01;65.88;100908.69;2067358;28;20040;-68
2022/09/24 01:14:42;;;;;;;5.72;3.35;;;;;;;11.98;66.00;100906.56;2079445;28;20060;-69
2022/09/24 01:15:54;;;;;;;6.90;3.45;;;;;;;11.96;66.10;100891.75;2069090;28;20509;-69
2022/09/24 01:17:04;;;;;;;10.13;3.80;;;;;;;11.96;66.50;100906.00;2063135;28;20483;-69
2022/09/24 01:18:17;;;;;;;9.05;3.67;;;;;;;11.97;66.37;100898.72;2079371;28;20061;-69
2022/09/24 01:19:42;;;;;;;7.13;3.60;;;;;;;11.94;66.58;100899.28;2063205;28;20046;-69
2022/09/24 01:20:50;;;;;;;6.45;3.15;;;;;;;11.95;67.04;100895.53;2068823;28;20037;-69
2022/09/24 01:22:00;;;;;;;6.47;3.50;;;;;;;11.93;67.13;100908.47;2071319;28;20038;-69
2022/09/24 01:23:26;;;;;;;8.50;4.00;;;;;;;11.94;67.46;100900.09;2064895;28;20050;-70
2022/09/24 01:24:49;;;;;;;5.85;3.47;;;;;;;11.94;67.34;100896.59;2058453;28;20061;-70
2022/09/24 01:26:06;;;;;;;9.60;4.03;;;;;;;11.90;67.75;100901.75;2069588;28;20175;-69
2022/09/24 01:27:18;;;;;;;8.07;4.18;;;;;;;11.91;67.76;100889.06;2073182;28;20050;-69
2022/09/24 01:28:32;;;;;;;7.30;3.58;;;;;;;11.88;68.19;100893.13;2072867;28;20426;-69
2022/09/24 01:29:40;;;;;;;7.70;3.83;;;;;;;11.88;68.20;100897.72;2082159;28;20079;-70
2022/09/24 01:30:48;;;;;;;7.30;3.30;;;;;;;11.88;68.29;100897.72;2088483;28;20041;-70
2022/09/24 01:32:00;;;;;;;8.43;3.50;;;;;;;11.90;68.24;100898.25;2089601;28;20055;-70
2022/09/24 01:33:07;;;;;;;6.10;3.50;;;;;;;11.89;68.83;100893.94;2081040;28;20041;-70
2022/09/24 01:34:14;;;;;;;7.50;3.78;;;;;;;11.91;68.86;100899.84;2075138;28;20050;-69
2022/09/24 01:35:24;;;;;;;8.40;3.83;;;;;;;11.92;68.91;100896.09;2079471;28;20045;-69
2022/09/24 01:36:32;;;;;;;7.57;3.40;;;;;;;11.94;69.12;100891.19;2071645;28;20422;-69
2022/09/24 01:37:43;;;;;;;6.72;3.47;;;;;;;11.95;69.11;100903.63;2073015;28;20054;-70
2022/09/24 01:38:48;;;;;;;8.80;3.70;;;;;;;11.98;69.08;100893.06;2064587;28;20058;-70
2022/09/24 01:39:57;;;;;;;7.07;3.92;;;;;;;11.99;69.41;100893.88;2065089;28;20049;-69
2022/09/24 01:41:09;;;;;;;5.15;3.40;;;;;;;11.97;69.26;100896.84;2067636;28;20532;-70
2022/09/24 01:42:13;;;;;;;6.50;3.00;;;;;;;11.98;69.45;100900.34;2065319;28;20073;-69
2022/09/24 01:43:29;;;;;;;5.20;3.28;;;;;;;11.99;69.42;100891.19;2072705;28;20502;-69
2022/09/24 01:44:31;;;;;;;6.40;3.28;;;;;;;12.00;69.63;100900.88;2073091;28;20037;-69
2022/09/24 01:45:34;;;;;;;12.07;4.25;;;;;;;12.00;69.66;100890.09;2056981;28;20035;-69
2022/09/24 01:46:42;;;;;;;11.10;4.15;;;;;;;12.00;69.78;100890.09;2057160;28;20042;-69
2022/09/24 01:47:46;;;;;;;7.50;3.83;;;;;;;12.00;69.76;100890.09;2064918;28;20049;-69
2022/09/24 01:48:52;;;;;;;6.90;3.55;;;;;;;12.00;69.88;100890.09;2057051;28;20301;-70
2022/09/24 01:49:54;;;;;;;6.97;3.67;;;;;;;12.01;69.79;100886.28;2057587;28;20043;-70
2022/09/24 01:51:18;;;;;;;8.75;3.50;;;;;;;11.99;70.04;100883.91;2064724;28;20045;-69
2022/09/24 01:52:25;;;;;;;6.00;3.25;;;;;;;11.99;70.02;100888.47;2073109;28;20787;-70
2022/09/24 01:53:30;;;;;;;5.07;3.30;;;;;;;12.00;70.17;100884.69;2072093;28;20042;-69
2022/09/24 01:54:42;;;;;;;7.57;3.35;;;;;;;12.01;70.09;100891.69;2065912;28;20054;-69
2022/09/24 01:55:49;;;;;;;5.95;3.00;;;;;;;12.01;70.13;100880.91;2065389;28;20034;-69
2022/09/24 01:57:15;;;;;;;7.05;3.10;;;;;;;12.00;70.23;100884.69;2064858;28;20054;-70
2022/09/24 01:58:32;;;;;;;7.40;3.17;;;;;;;12.00;70.23;100885.50;2067323;28;20034;-69
2022/09/24 02:00:00;;;;;;;7.72;3.30;;;;;;;12.00;70.43;100879.31;2070801;28;20510;-69
2022/09/24 02:01:07;;;;;;;6.53;3.28;;;;;;;12.01;70.50;100880.91;2072838;28;20034;-69
2022/09/24 02:02:15;;;;;;;7.90;3.22;;;;;;;11.99;70.17;100881.19;2072934;28;20030;-68
2022/09/24 02:03:42;;;;;;;5.80;3.10;;;;;;;11.97;70.37;100880.66;2080851;28;20032;-69
2022/09/24 02:04:52;;;;;;;5.90;3.13;;;;;;;11.96;70.68;100875.56;2072885;28;20044;-69
2022/09/24 02:06:12;;;;;;;6.80;3.30;;;;;;;11.97;70.59;100875.28;2077769;28;20398;-69
2022/09/24 02:07:22;;;;;;;7.88;3.22;;;;;;;11.98;70.61;100879.59;2077924;28;20030;-69
2022/09/24 02:08:32;;;;;;;6.90;3.40;;;;;;;11.98;70.56;100882.28;2065708;28;20482;-69
2022/09/24 02:09:36;;;;;;;4.82;2.72;;;;;;;11.99;70.48;100875.00;2067718;28;20535;-69
2022/09/24 02:10:52;;;;;;;5.18;2.92;;;;;;;12.00;70.84;100882.00;2064427;28;20054;-70
2022/09/24 02:12:00;;;;;;;7.40;3.20;;;;;;;12.01;70.75;100880.91;2056571;28;20043;-69
2022/09/24 02:13:09;;;;;;;6.97;2.70;;;;;;;12.02;70.69;100882.53;2058275;28;20754;-69
2022/09/24 02:14:15;;;;;;;5.95;3.05;;;;;;;12.04;70.26;100875.78;2056542;28;20042;-69
2022/09/24 02:15:42;;;;;;;5.40;3.10;;;;;;;12.07;70.53;100882.47;2041949;28;20050;-69
2022/09/24 02:16:49;;;;;;;8.10;3.10;;;;;;;12.09;70.29;100874.13;2055263;28;20042;-69
2022/09/24 02:17:58;;;;;;;4.97;2.72;;;;;;;12.09;70.41;100874.94;2064682;28;20069;-69
2022/09/24 02:19:07;;;;;;;5.30;3.15;;;;;;;12.10;70.52;100881.94;2072235;28;20045;-69
2022/09/24 02:20:20;;;;;;;9.90;3.33;;;;;;;12.09;70.27;100885.72;2056742;28;20073;-69
2022/09/24 02:21:25;;;;;;;4.18;2.70;;;;;;;12.10;70.21;100884.63;2064766;28;20034;-70
2022/09/24 02:22:29;;;;;;;5.38;2.85;;;;;;;12.12;70.09;100876.28;2072620;28;20033;-70
2022/09/24 02:23:37;;;;;;;4.93;2.83;;;;;;;12.11;70.16;100878.16;2072670;28;20053;-69
2022/09/24 02:24:52;;;;;;;6.00;3.13;;;;;;;12.11;70.21;100875.47;2064468;28;20046;-70
2022/09/24 02:26:03;;;;;;;7.10;3.05;;;;;;;12.12;70.12;100877.06;2064643;28;20505;-70
2022/09/24 02:27:10;;;;;;;5.78;3.10;;;;;;;12.12;70.27;100870.88;2058142;28;20035;-69
2022/09/24 02:28:18;;;;;;;5.30;3.00;;;;;;;12.12;70.00;100877.06;2065198;28;20046;-69
2022/09/24 02:29:23;;;;;;;5.15;3.03;;;;;;;12.12;69.95;100870.88;2071588;28;20030;-69
2022/09/24 02:30:36;;;;;;;7.03;3.15;;;;;;;12.11;70.25;100870.06;2072670;28;20054;-69
2022/09/24 02:31:46;;;;;;;7.28;3.15;;;;;;;12.12;70.23;100871.69;2070991;28;20046;-69
2022/09/24 02:32:53;;;;;;;6.78;3.10;;;;;;;12.12;70.34;100870.88;2065245;28;20039;-69
2022/09/24 02:34:20;;;;;;;6.40;3.13;;;;;;;12.13;70.12;100867.88;2077722;28;20036;-69
2022/09/24 02:35:27;;;;;;;4.43;2.80;;;;;;;12.11;70.32;100867.38;2074219;28;20054;-69
2022/09/24 02:36:35;;;;;;;9.38;3.38;;;;;;;12.11;70.41;100872.78;2070063;28;20041;-69
2022/09/24 02:37:46;;;;;;;6.30;3.13;;;;;;;12.11;70.10;100870.06;2080371;28;20042;-70
2022/09/24 02:38:54;;;;;;;7.35;3.47;;;;;;;12.10;69.93;100871.16;2072626;28;20042;-69
2022/09/24 02:40:00;;;;;;;5.30;3.10;;;;;;;12.10;69.91;100868.44;2072638;28;20391;-69
2022/09/24 02:41:08;;;;;;;6.35;3.40;;;;;;;12.11;70.13;100869.28;2072641;28;20037;-69
2022/09/24 02:42:13;;;;;;;6.13;2.85;;;;;;;12.13;69.95;100869.78;2073053;28;20560;-68
2022/09/24 02:43:17;;;;;;;5.03;2.83;;;;;;;12.13;70.04;100864.41;2080258;28;20567;-70
2022/09/24 02:44:21;;;;;;;9.18;3.05;;;;;;;12.12;70.14;100862.78;2080352;28;20037;-69
2022/09/24 02:45:24;;;;;;;5.45;2.88;;;;;;;12.10;70.20;100863.06;2080848;28;20369;-70
2022/09/24 02:46:32;;;;;;;5.65;3.20;;;;;;;12.13;69.83;100862.50;2064616;28;20050;-69
2022/09/24 02:47:38;;;;;;;6.18;2.88;;;;;;;12.13;69.92;100861.69;2057273;28;20039;-70
2022/09/24 02:48:46;;;;;;;4.85;2.90;;;;;;;12.13;69.74;100859.81;2065991;28;20062;-70
2022/09/24 02:49:51;;;;;;;5.07;2.90;;;;;;;12.13;69.71;100857.09;2072967;28;20839;-70
2022/09/24 02:50:55;;;;;;;5.88;3.00;;;;;;;12.15;69.69;100865.72;2073153;28;20037;-69
2022/09/24 02:52:00;;;;;;;6.30;2.72;;;;;;;12.16;69.60;100864.63;2073267;28;20049;-70
2022/09/24 02:53:09;;;;;;;4.60;2.75;;;;;;;12.17;69.79;100857.34;2073675;28;20057;-69
2022/09/24 02:54:17;;;;;;;5.93;2.95;;;;;;;12.17;69.60;100865.44;2073051;28;20042;-69
2022/09/24 02:55:20;;;;;;;4.55;2.90;;;;;;;12.16;69.47;100856.53;2073184;28;20029;-69
2022/09/24 02:56:27;;;;;;;5.38;2.97;;;;;;;12.17;69.63;100855.47;2073124;28;20502;-69
2022/09/24 02:57:33;;;;;;;4.03;2.72;;;;;;;12.17;69.25;100862.75;2073607;28;20054;-69
2022/09/24 02:58:37;;;;;;;5.57;2.80;;;;;;;12.16;69.36;100861.94;2072027;28;20046;-70
2022/09/24 02:59:39;;;;;;;5.18;2.80;;;;;;;12.16;69.28;100853.84;2064193;28;20034;-70
2022/09/24 03:00:44;;;;;;;5.43;2.78;;;;;;;12.16;69.12;100861.13;2072836;28;20045;-70
2022/09/24 03:01:51;;;;;;;5.65;3.03;;;;;;;12.17;69.15;100857.34;2079717;28;20071;-70
2022/09/24 03:02:53;;;;;;;5.15;2.70;;;;;;;12.16;69.29;100850.34;2080536;28;20030;-70
2022/09/24 03:03:58;;;;;;;4.82;3.00;;;;;;;12.15;69.14;100849.56;2080120;28;20036;-70
2022/09/24 03:05:02;;;;;;;5.45;2.80;;;;;;;12.16;69.03;100845.75;2064717;28;20042;-70
2022/09/24 03:06:06;;;;;;;5.25;2.75;;;;;;;12.17;69.03;100858.19;2076948;28;20061;-70
2022/09/24 03:07:10;;;;;;;5.65;2.78;;;;;;;12.18;68.82;100850.88;2070571;28;20042;-70
2022/09/24 03:08:12;;;;;;;5.93;2.80;;;;;;;12.17;68.79;100850.09;2072542;28;20052;-70
2022/09/24 03:09:15;;;;;;;4.82;2.80;;;;;;;12.17;68.60;100847.41;2073035;28;20046;-71
2022/09/24 03:10:20;;;;;;;5.07;3.03;;;;;;;12.17;68.56;100855.47;2080291;28;20041;-70
2022/09/24 03:11:28;;;;;;;5.32;2.90;;;;;;;12.17;68.45;100846.56;2080605;28;20196;-70
2022/09/24 03:12:32;;;;;;;7.20;3.00;;;;;;;12.16;68.65;100845.75;2064138;28;20042;-70
2022/09/24 03:13:40;;;;;;;5.85;2.60;;;;;;;12.16;68.27;100850.34;2065976;28;20050;-70
2022/09/24 03:14:42;;;;;;;6.00;2.53;;;;;;;12.17;68.28;100847.41;2072320;28;20056;-70
2022/09/24 03:15:53;;;;;;;3.92;2.60;;;;;;;12.17;68.06;100849.25;2072436;28;20045;-70
2022/09/24 03:16:58;;;;;;;5.28;3.03;;;;;;;12.18;68.36;100850.88;2072259;28;20042;-70
2022/09/24 03:18:03;;;;;;;6.60;2.85;;;;;;;12.18;68.06;100856.28;2072054;28;20037;-70
2022/09/24 03:19:06;;;;;;;7.07;2.50;;;;;;;12.16;67.93;100845.75;2063984;28;20041;-71
2022/09/24 03:20:09;;;;;;;8.52;2.42;;;;;;;12.18;68.00;100843.59;2064406;28;20038;-71
2022/09/24 03:21:14;;;;;;;6.45;3.17;;;;;;;12.18;67.79;100843.59;2064380;28;20030;-71
2022/09/24 03:22:19;;;;;;;5.70;2.85;;;;;;;12.17;67.75;100852.78;2064813;28;20518;-69
2022/09/24 03:23:21;;;;;;;5.75;2.42;;;;;;;12.17;67.75;100842.00;2064493;28;20042;-70
2022/09/24 03:24:26;;;;;;;6.45;2.78;;;;;;;12.16;67.65;100848.47;2072326;28;20045;-70
2022/09/24 03:25:30;;;;;;;6.35;2.95;;;;;;;12.17;67.58;100842.00;2080062;28;20620;-70
2022/09/24 03:26:38;;;;;;;7.38;3.03;;;;;;;12.17;67.62;100842.00;2072238;28;20529;-70
2022/09/24 03:27:41;;;;;;;5.47;2.97;;;;;;;12.17;67.64;100852.78;2064995;28;20061;-70
2022/09/24 03:28:43;;;;;;;5.47;2.70;;;;;;;12.17;67.72;100844.69;2064194;28;20042;-69
2022/09/24 03:31:11;;;;;;;6.90;2.92;;;;;;;12.14;67.88;100842.56;2081250;28;20049;-69
2022/09/24 03:32:19;;;;;;;5.28;2.97;;;;;;;12.15;67.75;100848.75;2080649;28;20067;-69
2022/09/24 03:33:23;;;;;;;7.22;3.10;;;;;;;12.13;67.80;100851.72;2079395;28;20041;-70
2022/09/24 03:34:26;;;;;;;7.10;3.10;;;;;;;12.12;67.94;100850.13;2072484;28;20037;-70
2022/09/24 03:35:28;;;;;;;6.13;3.13;;;;;;;12.11;67.78;100848.53;2068682;28;20077;-71
2022/09/24 03:36:39;;;;;;;7.05;3.45;;;;;;;12.09;67.69;100847.19;2068529;28;20048;-70
2022/09/24 03:37:42;;;;;;;5.50;3.17;;;;;;;12.08;67.74;100845.59;2069932;28;20048;-70
2022/09/24 03:38:53;;;;;;;5.35;3.08;;;;;;;12.06;67.71;100846.66;2055952;28;20055;-71
2022/09/24 03:39:57;;;;;;;6.93;3.38;;;;;;;12.03;67.90;100846.41;2051050;28;20409;-70
2022/09/24 03:41:02;;;;;;;7.65;3.35;;;;;;;12.01;67.76;100849.41;2064498;28;20033;-71
2022/09/24 03:42:05;;;;;;;5.40;2.90;;;;;;;12.00;67.76;100847.78;2079930;28;20048;-71
2022/09/24 03:43:07;;;;;;;5.90;3.35;;;;;;;11.99;67.93;100856.94;2080016;28;20535;-71
2022/09/24 03:44:11;;;;;;;7.43;3.42;;;;;;;11.98;67.97;100849.97;2080270;28;20037;-71
2022/09/24 03:45:14;;;;;;;8.10;3.30;;;;;;;11.98;67.82;100854.53;2080280;28;20548;-70
2022/09/24 03:46:23;;;;;;;5.05;2.95;;;;;;;11.97;67.60;100847.53;2071577;28;20045;-71
2022/09/24 03:47:30;;;;;;;7.07;2.93;;;;;;;11.96;67.90;100852.13;2065613;28;20639;-71
2022/09/24 03:48:36;;;;;;;6.20;3.05;;;;;;;11.95;67.76;100852.41;2072463;28;20291;-71
2022/09/24 03:49:38;;;;;;;5.40;2.80;;;;;;;11.96;67.49;100845.94;2071604;28;20040;-71
2022/09/24 03:50:49;;;;;;;5.90;3.00;;;;;;;11.96;67.67;100856.72;2071865;28;20508;-71
2022/09/24 03:51:51;;;;;;;5.80;3.10;;;;;;;11.96;67.72;100849.44;2072124;28;20037;-71
2022/09/24 03:52:56;;;;;;;5.78;3.10;;;;;;;11.95;67.64;100847.81;2064471;28;20042;-71
2022/09/24 03:53:59;;;;;;;11.15;3.80;;;;;;;11.96;67.51;100846.72;2064154;28;20045;-70
2022/09/24 03:55:01;;;;;;;4.72;2.60;;;;;;;11.95;67.57;100841.63;2072204;28;20030;-69
2022/09/24 03:56:06;;;;;;;7.28;3.10;;;;;;;11.95;67.42;100838.94;2071898;28;20038;-69
2022/09/24 03:57:13;;;;;;;6.55;3.33;;;;;;;11.94;67.48;100832.72;2072582;28;20037;-70
2022/09/24 03:58:16;;;;;;;5.07;3.20;;;;;;;11.94;67.35;100840.00;2071906;28;20536;-68
2022/09/24 03:59:20;;;;;;;5.85;3.53;;;;;;;11.95;67.41;100845.13;2071283;28;20049;-69
2022/09/24 04:00:22;;;;;;;7.47;2.90;;;;;;;11.96;67.36;100845.94;2071890;28;20054;-69
2022/09/24 04:01:24;;;;;;;7.93;2.80;;;;;;;11.96;67.11;100845.94;2063856;28;20053;-69
2022/09/24 04:02:26;;;;;;;5.43;3.08;;;;;;;11.95;67.08;100838.94;2056003;28;20034;-69
2022/09/24 04:03:28;;;;;;;7.25;3.28;;;;;;;11.95;66.97;100847.03;2063087;28;20068;-70
2022/09/24 04:04:32;;;;;;;5.88;2.88;;;;;;;11.94;67.00;100846.19;2064228;28;20046;-69
2022/09/24 04:05:39;;;;;;;5.72;2.88;;;;;;;11.96;66.98;100843.22;2065585;28;20057;-70
2022/09/24 04:06:44;;;;;;;7.82;3.10;;;;;;;11.99;66.67;100839.97;2072989;28;20041;-70
2022/09/24 04:07:47;;;;;;;7.32;3.03;;;;;;;11.97;66.90;100839.44;2064497;28;20050;-69
2022/09/24 04:08:49;;;;;;;5.40;2.78;;;;;;;11.97;66.47;100839.44;2063865;28;20038;-69
2022/09/24 04:09:54;;;;;;;5.28;3.10;;;;;;;11.96;66.70;100845.94;2064347;28;20031;-70
2022/09/24 04:11:01;;;;;;;6.22;2.53;;;;;;;11.96;66.37;100835.16;2080242;28;20043;-69
2022/09/24 04:12:08;;;;;;;6.30;2.80;;;;;;;11.96;66.68;100843.22;2071148;28;20038;-70
2022/09/24 04:13:14;;;;;;;6.90;2.65;;;;;;;11.95;66.46;100839.75;2063443;28;20511;-70
2022/09/24 04:14:22;;;;;;;4.30;2.58;;;;;;;11.94;66.46;100837.31;2064651;28;20045;-71
2022/09/24 04:15:25;;;;;;;7.05;2.67;;;;;;;11.91;66.31;100844.06;2079504;28;20505;-76
2022/09/24 04:16:30;;;;;;;6.35;2.45;;;;;;;11.90;66.09;100838.97;2079660;28;20037;-70
2022/09/24 04:17:40;;;;;;;5.30;2.60;;;;;;;11.89;66.14;100837.38;2079273;28;20034;-70
2022/09/24 04:18:47;;;;;;;6.28;2.70;;;;;;;11.89;66.00;100835.47;2079783;28;20025;-70
2022/09/24 04:19:52;;;;;;;8.32;2.50;;;;;;;11.91;65.96;100835.19;2071468;28;20018;-70
2022/09/24 04:21:00;;;;;;;5.68;2.75;;;;;;;11.90;65.85;100842.47;2064401;28;20042;-70
2022/09/24 04:22:05;;;;;;;4.68;2.35;;;;;;;11.91;65.87;100844.06;2071850;28;20036;-70
2022/09/24 04:23:09;;;;;;;5.32;2.92;;;;;;;11.93;65.46;100841.09;2071744;28;20038;-70
2022/09/24 04:24:11;;;;;;;5.15;2.88;;;;;;;11.94;65.65;100838.13;2055534;28;20406;-70
2022/09/24 04:25:16;;;;;;;5.00;2.60;;;;;;;11.95;65.46;100841.63;2055848;28;20035;-69
2022/09/24 04:26:20;;;;;;;7.50;2.80;;;;;;;11.95;65.65;100836.25;2063741;28;20038;-71
2022/09/24 04:27:24;;;;;;;5.15;2.60;;;;;;;11.94;65.47;100840.81;2055418;28;20085;-69
2022/09/24 04:28:27;;;;;;;5.28;2.78;;;;;;;11.95;65.31;100838.94;2072013;28;20034;-69
2022/09/24 04:29:31;;;;;;;5.72;2.70;;;;;;;11.95;65.54;100834.34;2079762;28;20050;-70
2022/09/24 04:30:37;;;;;;;4.88;2.88;;;;;;;11.97;65.29;100842.13;2080765;28;20088;-72
2022/09/24 04:31:39;;;;;;;5.47;2.40;;;;;;;11.98;65.13;100843.75;2087476;28;20116;-72
2022/09/24 04:32:41;;;;;;;4.05;2.65;;;;;;;12.00;64.95;100841.56;2079718;28;20523;-70
2022/09/24 04:33:46;;;;;;;8.77;2.97;;;;;;;11.99;65.05;100830.00;2076153;28;20030;-71
2022/09/24 04:34:48;;;;;;;4.72;2.40;;;;;;;11.98;65.01;100841.88;2079504;28;20033;-71
2022/09/24 04:35:50;;;;;;;4.53;2.55;;;;;;;11.99;64.73;100839.97;2078736;28;20036;-71
2022/09/24 04:36:56;;;;;;;5.22;2.75;;;;;;;12.00;64.60;100839.69;2071257;28;20513;-71
2022/09/24 04:38:01;;;;;;;6.30;2.60;;;;;;;12.02;65.06;100839.41;2064321;28;20034;-70
2022/09/24 04:39:06;;;;;;;4.68;2.40;;;;;;;12.05;64.76;100836.16;2070903;28;20049;-72
2022/09/24 04:40:14;;;;;;;5.30;2.38;;;;;;;12.04;64.71;100834.53;2071651;28;20049;-72
2022/09/24 04:41:19;;;;;;;5.72;2.75;;;;;;;12.05;64.74;100839.66;2069684;28;20050;-72
2022/09/24 04:42:26;;;;;;;7.43;2.80;;;;;;;12.04;64.57;100838.06;2071617;28;20393;-72
2022/09/24 04:43:34;;;;;;;6.38;2.50;;;;;;;12.05;64.33;100833.47;2078363;28;20105;-72
2022/09/24 04:44:37;;;;;;;5.65;2.50;;;;;;;12.06;64.24;100833.16;2071486;28;20037;-73
2022/09/24 04:45:43;;;;;;;5.40;2.50;;;;;;;12.05;64.48;100836.97;2063997;28;20034;-73
2022/09/24 04:46:48;;;;;;;5.10;2.40;;;;;;;12.06;64.19;100835.88;2072061;28;20057;-72
2022/09/24 04:47:56;;;;;;;5.90;2.70;;;;;;;12.06;64.38;100835.06;2071685;28;20052;-72
2022/09/24 04:49:01;;;;;;;5.57;2.78;;;;;;;12.07;64.60;100839.38;2064386;28;20042;-72
2022/09/24 04:50:10;;;;;;;5.60;2.60;;;;;;;12.10;64.36;100833.41;2072281;28;20030;-72
2022/09/24 04:51:15;;;;;;;3.63;2.22;;;;;;;12.10;64.43;100833.41;2079556;28;20037;-72
2022/09/24 04:52:28;;;;;;;4.30;2.30;;;;;;;12.11;64.31;100834.25;2077207;28;20049;-72
2022/09/24 04:53:34;;;;;;;5.65;2.78;;;;;;;12.12;64.22;100830.44;2070113;28;20583;-73
2022/09/24 04:54:36;;;;;;;5.07;2.53;;;;;;;12.13;64.02;100840.94;2062892;28;20042;-72
2022/09/24 04:55:41;;;;;;;6.72;2.25;;;;;;;12.12;63.85;100836.63;2062172;28;20034;-72
2022/09/24 04:56:49;;;;;;;5.63;2.63;;;;;;;12.15;63.84;100833.38;2047265;28;20046;-72
2022/09/24 04:57:51;;;;;;;5.55;2.50;;;;;;;12.18;63.78;100834.72;2053778;28;20049;-72
2022/09/24 04:58:55;;;;;;;7.82;2.63;;;;;;;12.20;63.48;100838.75;2054203;28;20141;-72
2022/09/24 05:00:00;;;;;;;5.55;3.00;;;;;;;12.23;63.54;100837.34;2070375;28;20046;-72
2022/09/24 05:01:05;;;;;;;3.65;2.35;;;;;;;12.25;63.61;100822.50;2062814;28;20053;-71
2022/09/24 05:02:11;;;;;;;12.43;2.65;;;;;;;12.26;63.34;100821.44;2055496;28;20442;-72
2022/09/24 05:03:14;;;;;;;4.97;2.40;;;;;;;12.29;63.14;100828.13;2060112;28;20034;-72
2022/09/24 05:04:19;;;;;;;5.43;2.65;;;;;;;12.26;63.14;100817.91;2062454;28;20042;-72
2022/09/24 05:05:23;;;;;;;7.78;2.30;;;;;;;12.24;63.00;100825.50;2054974;28;20027;-73
2022/09/24 05:06:28;;;;;;;4.57;2.28;;;;;;;12.26;62.96;100826.84;2063346;28;20042;-72
2022/09/24 05:07:32;;;;;;;5.90;2.70;;;;;;;12.27;62.78;100822.25;2058600;28;20043;-73
2022/09/24 05:08:35;;;;;;;5.00;2.80;;;;;;;12.29;63.00;100823.56;2071437;28;20059;-73
2022/09/24 05:09:41;;;;;;;5.05;2.50;;;;;;;12.28;63.06;100824.63;2071390;28;20038;-72
2022/09/24 05:10:45;;;;;;;5.80;2.60;;;;;;;12.22;62.90;100820.38;2064089;28;20038;-72
2022/09/24 05:11:53;;;;;;;5.82;2.60;;;;;;;12.23;62.65;100824.69;2064253;28;20062;-73
2022/09/24 05:12:57;;;;;;;4.43;2.50;;;;;;;12.23;63.12;100819.31;2072485;28;20045;-72
2022/09/24 05:14:01;;;;;;;4.22;2.20;;;;;;;12.24;62.83;100820.91;2079070;28;20616;-72
2022/09/24 05:15:07;;;;;;;4.55;2.65;;;;;;;12.26;63.04;100820.59;2063635;28;20042;-72